Belmont, West Virginia
Current Conditions -  °F | °C
As of 11:53 PM on Saturday 22 Nov 2014 (Local Time) from KPKB Reporting Station
Overcast Overcast  
Wind Chill: 52°   Ceiling: 10000
Heat Index: 52°   Visibility: 10mi
Dew Point: 25°   Wind: 6mph
Humidity: 35%   Direction: 190°S
Pressure: 30.14"   Gusts: NA
Location:  39.38°N, 81.26°W
Report Text: KPKB 230453Z AUTO 19005KT 10SM OVC100 11/M04 A3014 RMK AO2 SLP207 T01111039 401331094
Loading
Personal Weather Stations






























Interactive Weather Map New forecast layout! Learn more

10-Day Weather Forecast

Advertisements
Track Severe Weather on mobile